sensor_id;sensor_type;location;lat;lon;timestamp;pressure;altitude;pressure_sealevel;temperature
19102;BMP280;9683;49.028;12.064;2022-07-23T00:01:03;97262.53;;;25.54
19102;BMP280;9683;49.028;12.064;2022-07-23T00:03:31;97255.81;;;25.60
19102;BMP280;9683;49.028;12.064;2022-07-23T00:05:57;97248.28;;;25.66
19102;BMP280;9683;49.028;12.064;2022-07-23T00:08:24;97251.00;;;25.74
19102;BMP280;9683;49.028;12.064;2022-07-23T00:10:51;97251.81;;;25.75
19102;BMP280;9683;49.028;12.064;2022-07-23T00:13:17;97250.69;;;25.67
19102;BMP280;9683;49.028;12.064;2022-07-23T00:15:44;97249.84;;;25.49
19102;BMP280;9683;49.028;12.064;2022-07-23T00:18:11;97240.19;;;25.43
19102;BMP280;9683;49.028;12.064;2022-07-23T00:20:39;97230.09;;;25.44
19102;BMP280;9683;49.028;12.064;2022-07-23T00:23:05;97216.31;;;25.49
19102;BMP280;9683;49.028;12.064;2022-07-23T00:25:32;97217.94;;;25.59
19102;BMP280;9683;49.028;12.064;2022-07-23T00:27:59;97222.09;;;25.65
19102;BMP280;9683;49.028;12.064;2022-07-23T00:30:26;97212.66;;;25.71
19102;BMP280;9683;49.028;12.064;2022-07-23T00:32:55;97220.03;;;25.70
19102;BMP280;9683;49.028;12.064;2022-07-23T00:35:23;97214.72;;;25.65
19102;BMP280;9683;49.028;12.064;2022-07-23T00:37:52;97200.63;;;25.63
19102;BMP280;9683;49.028;12.064;2022-07-23T00:40:18;97202.69;;;25.66
19102;BMP280;9683;49.028;12.064;2022-07-23T00:42:45;97198.66;;;25.72
19102;BMP280;9683;49.028;12.064;2022-07-23T00:45:12;97196.13;;;25.76
19102;BMP280;9683;49.028;12.064;2022-07-23T00:47:40;97188.41;;;25.78
19102;BMP280;9683;49.028;12.064;2022-07-23T00:50:08;97173.81;;;25.65
19102;BMP280;9683;49.028;12.064;2022-07-23T00:52:37;97176.06;;;25.63
19102;BMP280;9683;49.028;12.064;2022-07-23T00:55:07;97170.28;;;25.65
19102;BMP280;9683;49.028;12.064;2022-07-23T00:57:34;97170.78;;;25.67
19102;BMP280;9683;49.028;12.064;2022-07-23T01:00:03;97168.50;;;25.69
19102;BMP280;9683;49.028;12.064;2022-07-23T01:02:30;97173.97;;;25.69
19102;BMP280;9683;49.028;12.064;2022-07-23T01:04:57;97180.72;;;25.71
19102;BMP280;9683;49.028;12.064;2022-07-23T01:07:23;97177.19;;;25.71
19102;BMP280;9683;49.028;12.064;2022-07-23T01:09:50;97165.47;;;25.70
19102;BMP280;9683;49.028;12.064;2022-07-23T01:12:18;97159.38;;;25.73
19102;BMP280;9683;49.028;12.064;2022-07-23T01:14:53;97168.66;;;25.72
19102;BMP280;9683;49.028;12.064;2022-07-23T01:17:20;97172.19;;;25.64
19102;BMP280;9683;49.028;12.064;2022-07-23T01:19:46;97175.25;;;25.45
19102;BMP280;9683;49.028;12.064;2022-07-23T01:22:14;97187.09;;;25.15
19102;BMP280;9683;49.028;12.064;2022-07-23T01:24:44;97206.97;;;24.76
19102;BMP280;9683;49.028;12.064;2022-07-23T01:27:11;97209.81;;;24.62
19102;BMP280;9683;49.028;12.064;2022-07-23T01:29:38;97202.16;;;24.64
19102;BMP280;9683;49.028;12.064;2022-07-23T01:32:05;97205.19;;;24.72
19102;BMP280;9683;49.028;12.064;2022-07-23T01:34:32;97212.28;;;24.81
19102;BMP280;9683;49.028;12.064;2022-07-23T01:36:59;97223.56;;;24.88
19102;BMP280;9683;49.028;12.064;2022-07-23T01:39:26;97221.97;;;24.96
19102;BMP280;9683;49.028;12.064;2022-07-23T01:41:54;97217.84;;;25.07
19102;BMP280;9683;49.028;12.064;2022-07-23T01:44:20;97217.88;;;25.16
19102;BMP280;9683;49.028;12.064;2022-07-23T01:46:47;97224.94;;;25.25
19102;BMP280;9683;49.028;12.064;2022-07-23T01:49:13;97217.41;;;25.31
19102;BMP280;9683;49.028;12.064;2022-07-23T01:51:40;97224.63;;;25.35
19102;BMP280;9683;49.028;12.064;2022-07-23T01:54:25;97225.59;;;25.39
19102;BMP280;9683;49.028;12.064;2022-07-23T01:56:51;97212.47;;;25.41
19102;BMP280;9683;49.028;12.064;2022-07-23T01:59:19;97228.97;;;25.45
19102;BMP280;9683;49.028;12.064;2022-07-23T02:01:46;97245.81;;;25.47
19102;BMP280;9683;49.028;12.064;2022-07-23T02:04:12;97265.56;;;25.52
19102;BMP280;9683;49.028;12.064;2022-07-23T02:06:39;97283.56;;;25.53
19102;BMP280;9683;49.028;12.064;2022-07-23T02:09:06;97303.75;;;25.52
19102;BMP280;9683;49.028;12.064;2022-07-23T02:11:33;97316.41;;;25.48
19102;BMP280;9683;49.028;12.064;2022-07-23T02:14:00;97311.91;;;25.44
19102;BMP280;9683;49.028;12.064;2022-07-23T02:16:28;97295.84;;;25.42
19102;BMP280;9683;49.028;12.064;2022-07-23T02:18:54;97325.06;;;25.42
19102;BMP280;9683;49.028;12.064;2022-07-23T02:21:21;97335.97;;;25.42
19102;BMP280;9683;49.028;12.064;2022-07-23T02:23:48;97341.41;;;25.42
19102;BMP280;9683;49.028;12.064;2022-07-23T02:26:15;97341.41;;;25.42
19102;BMP280;9683;49.028;12.064;2022-07-23T02:28:41;97331.13;;;25.39
19102;BMP280;9683;49.028;12.064;2022-07-23T02:31:08;97338.03;;;25.36
19102;BMP280;9683;49.028;12.064;2022-07-23T02:33:36;97334.00;;;25.34
19102;BMP280;9683;49.028;12.064;2022-07-23T02:36:03;97334.59;;;25.22
19102;BMP280;9683;49.028;12.064;2022-07-23T02:38:30;97320.81;;;25.19
19102;BMP280;9683;49.028;12.064;2022-07-23T02:40:57;97324.63;;;25.18
19102;BMP280;9683;49.028;12.064;2022-07-23T02:43:23;97337.16;;;25.19
19102;BMP280;9683;49.028;12.064;2022-07-23T02:45:50;97319.53;;;25.16
19102;BMP280;9683;49.028;12.064;2022-07-23T02:48:17;97333.16;;;25.16
19102;BMP280;9683;49.028;12.064;2022-07-23T02:50:45;97323.78;;;25.08
19102;BMP280;9683;49.028;12.064;2022-07-23T02:53:11;97323.03;;;25.08
19102;BMP280;9683;49.028;12.064;2022-07-23T02:55:38;97315.31;;;25.10
19102;BMP280;9683;49.028;12.064;2022-07-23T02:58:04;97310.16;;;25.08
19102;BMP280;9683;49.028;12.064;2022-07-23T03:00:31;97295.41;;;25.01
19102;BMP280;9683;49.028;12.064;2022-07-23T03:02:58;97298.13;;;25.01
19102;BMP280;9683;49.028;12.064;2022-07-23T03:05:25;97298.13;;;25.01
19102;BMP280;9683;49.028;12.064;2022-07-23T03:07:53;97286.88;;;24.94
19102;BMP280;9683;49.028;12.064;2022-07-23T03:10:19;97286.72;;;24.90
19102;BMP280;9683;49.028;12.064;2022-07-23T03:12:46;97281.09;;;24.87
19102;BMP280;9683;49.028;12.064;2022-07-23T03:15:12;97293.91;;;24.86
19102;BMP280;9683;49.028;12.064;2022-07-23T03:17:39;97315.63;;;24.78
19102;BMP280;9683;49.028;12.064;2022-07-23T03:20:07;97356.09;;;24.40
19102;BMP280;9683;49.028;12.064;2022-07-23T03:22:34;97349.44;;;23.96
19102;BMP280;9683;49.028;12.064;2022-07-23T03:25:02;97354.34;;;23.72
19102;BMP280;9683;49.028;12.064;2022-07-23T03:27:30;97364.66;;;23.48
19102;BMP280;9683;49.028;12.064;2022-07-23T03:29:58;97346.13;;;23.50
19102;BMP280;9683;49.028;12.064;2022-07-23T03:32:25;97345.44;;;23.44
19102;BMP280;9683;49.028;12.064;2022-07-23T03:34:52;97324.56;;;23.53
19102;BMP280;9683;49.028;12.064;2022-07-23T03:37:19;97316.38;;;23.67
19102;BMP280;9683;49.028;12.064;2022-07-23T03:39:46;97303.38;;;23.78
19102;BMP280;9683;49.028;12.064;2022-07-23T03:42:14;97285.41;;;23.90
19102;BMP280;9683;49.028;12.064;2022-07-23T03:44:40;97277.03;;;23.87
19102;BMP280;9683;49.028;12.064;2022-07-23T03:47:07;97275.31;;;23.91
19102;BMP280;9683;49.028;12.064;2022-07-23T03:49:34;97296.88;;;23.87
19102;BMP280;9683;49.028;12.064;2022-07-23T03:52:01;97289.50;;;23.65
19102;BMP280;9683;49.028;12.064;2022-07-23T03:54:28;97277.50;;;23.66
19102;BMP280;9683;49.028;12.064;2022-07-23T03:56:54;97267.22;;;23.77
19102;BMP280;9683;49.028;12.064;2022-07-23T03:59:22;97268.09;;;23.86
19102;BMP280;9683;49.028;12.064;2022-07-23T04:01:49;97260.41;;;23.88
19102;BMP280;9683;49.028;12.064;2022-07-23T04:04:16;97269.28;;;23.94
19102;BMP280;9683;49.028;12.064;2022-07-23T04:06:42;97269.16;;;23.99
19102;BMP280;9683;49.028;12.064;2022-07-23T04:09:09;97252.50;;;24.00
19102;BMP280;9683;49.028;12.064;2022-07-23T04:11:36;97233.47;;;24.00
19102;BMP280;9683;49.028;12.064;2022-07-23T04:14:02;97228.19;;;24.04
19102;BMP280;9683;49.028;12.064;2022-07-23T04:16:30;97226.47;;;24.08
19102;BMP280;9683;49.028;12.064;2022-07-23T04:18:57;97215.59;;;24.08
19102;BMP280;9683;49.028;12.064;2022-07-23T04:21:24;97214.19;;;24.10
19102;BMP280;9683;49.028;12.064;2022-07-23T04:23:50;97231.50;;;24.14
19102;BMP280;9683;49.028;12.064;2022-07-23T04:26:17;97237.94;;;24.18
19102;BMP280;9683;49.028;12.064;2022-07-23T04:28:44;97246.13;;;24.18
19102;BMP280;9683;49.028;12.064;2022-07-23T04:31:10;97247.72;;;24.19
19102;BMP280;9683;49.028;12.064;2022-07-23T04:33:39;97262.44;;;24.18
19102;BMP280;9683;49.028;12.064;2022-07-23T04:36:05;97258.41;;;24.16
19102;BMP280;9683;49.028;12.064;2022-07-23T04:38:32;97259.31;;;24.11
19102;BMP280;9683;49.028;12.064;2022-07-23T04:40:59;97244.41;;;24.09
19102;BMP280;9683;49.028;12.064;2022-07-23T04:43:26;97235.94;;;24.10
19102;BMP280;9683;49.028;12.064;2022-07-23T04:45:53;97243.47;;;24.13
19102;BMP280;9683;49.028;12.064;2022-07-23T04:48:20;97249.13;;;24.17
19102;BMP280;9683;49.028;12.064;2022-07-23T04:50:48;97249.72;;;24.14
19102;BMP280;9683;49.028;12.064;2022-07-23T04:53:15;97236.44;;;24.12
19102;BMP280;9683;49.028;12.064;2022-07-23T04:55:43;97241.56;;;24.14
19102;BMP280;9683;49.028;12.064;2022-07-23T04:58:09;97240.97;;;24.17
19102;BMP280;9683;49.028;12.064;2022-07-23T05:00:36;97250.53;;;24.14
19102;BMP280;9683;49.028;12.064;2022-07-23T05:03:03;97245.31;;;24.18
19102;BMP280;9683;49.028;12.064;2022-07-23T05:05:30;97238.41;;;24.20
19102;BMP280;9683;49.028;12.064;2022-07-23T05:07:58;97244.06;;;24.24
19102;BMP280;9683;49.028;12.064;2022-07-23T05:10:24;97244.38;;;24.23
19102;BMP280;9683;49.028;12.064;2022-07-23T05:12:51;97242.34;;;24.28
19102;BMP280;9683;49.028;12.064;2022-07-23T05:15:18;97249.69;;;24.28
19102;BMP280;9683;49.028;12.064;2022-07-23T05:17:44;97245.53;;;24.30
19102;BMP280;9683;49.028;12.064;2022-07-23T05:20:11;97251.97;;;24.34
19102;BMP280;9683;49.028;12.064;2022-07-23T05:22:38;97254.06;;;24.37
19102;BMP280;9683;49.028;12.064;2022-07-23T05:25:07;97257.75;;;24.41
19102;BMP280;9683;49.028;12.064;2022-07-23T05:27:34;97264.81;;;24.42
19102;BMP280;9683;49.028;12.064;2022-07-23T05:30:01;97265.78;;;24.46
19102;BMP280;9683;49.028;12.064;2022-07-23T05:32:28;97272.56;;;24.49
19102;BMP280;9683;49.028;12.064;2022-07-23T05:34:54;97267.41;;;24.47
19102;BMP280;9683;49.028;12.064;2022-07-23T05:37:21;97265.31;;;24.44
19102;BMP280;9683;49.028;12.064;2022-07-23T05:39:48;97260.19;;;24.43
19102;BMP280;9683;49.028;12.064;2022-07-23T05:42:16;97253.16;;;24.50
19102;BMP280;9683;49.028;12.064;2022-07-23T05:44:42;97253.03;;;24.55
19102;BMP280;9683;49.028;12.064;2022-07-23T05:47:09;97251.00;;;24.61
19102;BMP280;9683;49.028;12.064;2022-07-23T05:49:36;97253.25;;;24.67
19102;BMP280;9683;49.028;12.064;2022-07-23T05:52:04;97257.75;;;24.72
19102;BMP280;9683;49.028;12.064;2022-07-23T05:54:34;97256.81;;;24.77
19102;BMP280;9683;49.028;12.064;2022-07-23T05:57:00;97268.69;;;24.81
19102;BMP280;9683;49.028;12.064;2022-07-23T05:59:28;97280.56;;;24.85
19102;BMP280;9683;49.028;12.064;2022-07-23T06:01:55;97289.09;;;24.92
19102;BMP280;9683;49.028;12.064;2022-07-23T06:04:22;97285.28;;;24.93
19102;BMP280;9683;49.028;12.064;2022-07-23T06:06:48;97288.97;;;24.97
19102;BMP280;9683;49.028;12.064;2022-07-23T06:09:15;97285.66;;;25.00
19102;BMP280;9683;49.028;12.064;2022-07-23T06:11:42;97296.88;;;25.07
19102;BMP280;9683;49.028;12.064;2022-07-23T06:14:08;97291.75;;;25.14
19102;BMP280;9683;49.028;12.064;2022-07-23T06:16:37;97294.34;;;25.19
19102;BMP280;9683;49.028;12.064;2022-07-23T06:19:03;97289.38;;;25.21
19102;BMP280;9683;49.028;12.064;2022-07-23T06:21:30;97301.75;;;25.27
19102;BMP280;9683;49.028;12.064;2022-07-23T06:23:57;97304.97;;;25.29
19102;BMP280;9683;49.028;12.064;2022-07-23T06:26:23;97307.38;;;25.31
19102;BMP280;9683;49.028;12.064;2022-07-23T06:28:50;97316.50;;;25.26
19102;BMP280;9683;49.028;12.064;2022-07-23T06:31:17;97320.97;;;25.22
19102;BMP280;9683;49.028;12.064;2022-07-23T06:33:45;97321.63;;;25.19
19102;BMP280;9683;49.028;12.064;2022-07-23T06:36:12;97318.22;;;25.14
19102;BMP280;9683;49.028;12.064;2022-07-23T06:38:38;97328.31;;;25.13
19102;BMP280;9683;49.028;12.064;2022-07-23T06:41:05;97329.28;;;25.17
19102;BMP280;9683;49.028;12.064;2022-07-23T06:43:31;97340.84;;;25.23
19102;BMP280;9683;49.028;12.064;2022-07-23T06:45:58;97334.97;;;25.29
19102;BMP280;9683;49.028;12.064;2022-07-23T06:48:25;97339.63;;;25.37
19102;BMP280;9683;49.028;12.064;2022-07-23T06:50:53;97344.94;;;25.42
19102;BMP280;9683;49.028;12.064;2022-07-23T06:53:20;97353.78;;;25.48
19102;BMP280;9683;49.028;12.064;2022-07-23T06:55:46;97350.78;;;25.58
19102;BMP280;9683;49.028;12.064;2022-07-23T06:58:13;97348.69;;;25.64
19102;BMP280;9683;49.028;12.064;2022-07-23T07:00:41;97348.72;;;25.72
19102;BMP280;9683;49.028;12.064;2022-07-23T07:03:07;97339.13;;;25.83
19102;BMP280;9683;49.028;12.064;2022-07-23T07:05:34;97338.34;;;25.91
19102;BMP280;9683;49.028;12.064;2022-07-23T07:08:02;97348.44;;;25.99
19102;BMP280;9683;49.028;12.064;2022-07-23T07:10:29;97355.34;;;25.97
19102;BMP280;9683;49.028;12.064;2022-07-23T07:12:55;97354.56;;;25.96
19102;BMP280;9683;49.028;12.064;2022-07-23T07:15:22;97351.97;;;26.00
19102;BMP280;9683;49.028;12.064;2022-07-23T07:17:49;97355.19;;;26.02
19102;BMP280;9683;49.028;12.064;2022-07-23T07:20:16;97354.56;;;26.05
19102;BMP280;9683;49.028;12.064;2022-07-23T07:22:42;97354.22;;;26.07
19102;BMP280;9683;49.028;12.064;2022-07-23T07:25:11;97359.38;;;26.08
19102;BMP280;9683;49.028;12.064;2022-07-23T07:27:38;97355.34;;;26.06
19102;BMP280;9683;49.028;12.064;2022-07-23T07:30:06;97359.38;;;26.08
19102;BMP280;9683;49.028;12.064;2022-07-23T07:32:33;97353.41;;;26.06
19102;BMP280;9683;49.028;12.064;2022-07-23T07:35:02;97353.75;;;26.05
19102;BMP280;9683;49.028;12.064;2022-07-23T07:37:28;97356.16;;;26.06
19102;BMP280;9683;49.028;12.064;2022-07-23T07:39:55;97362.91;;;26.09
19102;BMP280;9683;49.028;12.064;2022-07-23T07:42:23;97368.53;;;26.12
19102;BMP280;9683;49.028;12.064;2022-07-23T07:44:50;97373.19;;;26.12
19102;BMP280;9683;49.028;12.064;2022-07-23T07:47:16;97377.53;;;26.13
19102;BMP280;9683;49.028;12.064;2022-07-23T07:49:43;97370.59;;;26.15
19102;BMP280;9683;49.028;12.064;2022-07-23T07:52:10;97385.75;;;26.21
19102;BMP280;9683;49.028;12.064;2022-07-23T07:54:37;97378.19;;;26.27
19102;BMP280;9683;49.028;12.064;2022-07-23T07:57:04;97375.63;;;26.30
19102;BMP280;9683;49.028;12.064;2022-07-23T07:59:32;97379.50;;;26.38
19102;BMP280;9683;49.028;12.064;2022-07-23T08:01:58;97382.06;;;26.43
19102;BMP280;9683;49.028;12.064;2022-07-23T08:04:25;97381.06;;;26.48
19102;BMP280;9683;49.028;12.064;2022-07-23T08:06:52;97377.72;;;26.51
19102;BMP280;9683;49.028;12.064;2022-07-23T08:09:18;97395.53;;;26.57
19102;BMP280;9683;49.028;12.064;2022-07-23T08:11:45;97383.78;;;26.65
19102;BMP280;9683;49.028;12.064;2022-07-23T08:14:12;97382.50;;;26.71
19102;BMP280;9683;49.028;12.064;2022-07-23T08:16:40;97388.78;;;26.80
19102;BMP280;9683;49.028;12.064;2022-07-23T08:19:06;97400.53;;;26.89
19102;BMP280;9683;49.028;12.064;2022-07-23T08:21:33;97382.81;;;26.95
19102;BMP280;9683;49.028;12.064;2022-07-23T08:24:00;97395.66;;;27.03
19102;BMP280;9683;49.028;12.064;2022-07-23T08:26:26;97389.53;;;27.06
19102;BMP280;9683;49.028;12.064;2022-07-23T08:28:53;97405.75;;;27.11
19102;BMP280;9683;49.028;12.064;2022-07-23T08:31:20;97405.91;;;27.15
19102;BMP280;9683;49.028;12.064;2022-07-23T08:33:48;97404.28;;;27.22
19102;BMP280;9683;49.028;12.064;2022-07-23T08:36:14;97409.09;;;27.25
19102;BMP280;9683;49.028;12.064;2022-07-23T08:38:41;97398.31;;;27.29
19102;BMP280;9683;49.028;12.064;2022-07-23T08:41:08;97402.81;;;27.25
19102;BMP280;9683;49.028;12.064;2022-07-23T08:43:35;97397.84;;;27.27
19102;BMP280;9683;49.028;12.064;2022-07-23T08:46:03;97399.59;;;27.31
19102;BMP280;9683;49.028;12.064;2022-07-23T08:48:31;97391.53;;;27.35
19102;BMP280;9683;49.028;12.064;2022-07-23T08:51:02;97397.59;;;27.41
19102;BMP280;9683;49.028;12.064;2022-07-23T08:53:30;97393.75;;;27.50
19102;BMP280;9683;49.028;12.064;2022-07-23T08:55:58;97396.56;;;27.62
19102;BMP280;9683;49.028;12.064;2022-07-23T08:58:26;97400.75;;;27.68
19102;BMP280;9683;49.028;12.064;2022-07-23T09:00:53;97379.78;;;27.72
19102;BMP280;9683;49.028;12.064;2022-07-23T09:03:24;97377.00;;;27.81
19102;BMP280;9683;49.028;12.064;2022-07-23T09:05:52;97399.97;;;27.89
19102;BMP280;9683;49.028;12.064;2022-07-23T09:08:21;97389.28;;;27.96
19102;BMP280;9683;49.028;12.064;2022-07-23T09:10:51;97386.38;;;28.01
19102;BMP280;9683;49.028;12.064;2022-07-23T09:13:33;97375.38;;;28.09
19102;BMP280;9683;49.028;12.064;2022-07-23T09:16:03;97375.50;;;28.13
19102;BMP280;9683;49.028;12.064;2022-07-23T09:18:32;97374.19;;;28.19
19102;BMP280;9683;49.028;12.064;2022-07-23T09:21:16;97370.09;;;28.25
19102;BMP280;9683;49.028;12.064;2022-07-23T09:23:46;97374.94;;;28.28
19102;BMP280;9683;49.028;12.064;2022-07-23T09:26:35;97376.63;;;28.33
19102;BMP280;9683;49.028;12.064;2022-07-23T09:29:07;97377.00;;;28.31
19102;BMP280;9683;49.028;12.064;2022-07-23T09:31:44;97380.13;;;28.21
19102;BMP280;9683;49.028;12.064;2022-07-23T09:34:13;97372.25;;;28.19
19102;BMP280;9683;49.028;12.064;2022-07-23T09:36:40;97376.06;;;28.27
19102;BMP280;9683;49.028;12.064;2022-07-23T09:39:09;97366.66;;;28.37
19102;BMP280;9683;49.028;12.064;2022-07-23T09:41:39;97371.91;;;28.42
19102;BMP280;9683;49.028;12.064;2022-07-23T09:44:12;97370.75;;;28.43
19102;BMP280;9683;49.028;12.064;2022-07-23T09:46:39;97383.53;;;28.39
19102;BMP280;9683;49.028;12.064;2022-07-23T09:49:13;97380.13;;;28.42
19102;BMP280;9683;49.028;12.064;2022-07-23T09:51:44;97378.31;;;28.46
19102;BMP280;9683;49.028;12.064;2022-07-23T09:54:23;97379.16;;;28.58
19102;BMP280;9683;49.028;12.064;2022-07-23T09:56:51;97372.03;;;28.66
19102;BMP280;9683;49.028;12.064;2022-07-23T09:59:23;97372.28;;;28.73
19102;BMP280;9683;49.028;12.064;2022-07-23T10:01:50;97369.66;;;28.77
19102;BMP280;9683;49.028;12.064;2022-07-23T10:04:18;97368.66;;;28.81
19102;BMP280;9683;49.028;12.064;2022-07-23T10:06:45;97364.44;;;28.84
19102;BMP280;9683;49.028;12.064;2022-07-23T10:09:12;97375.53;;;28.87
19102;BMP280;9683;49.028;12.064;2022-07-23T10:11:43;97369.38;;;28.90
19102;BMP280;9683;49.028;12.064;2022-07-23T10:14:10;97375.66;;;28.91
19102;BMP280;9683;49.028;12.064;2022-07-23T10:16:37;97366.28;;;28.92
19102;BMP280;9683;49.028;12.064;2022-07-23T10:19:04;97366.66;;;29.02
19102;BMP280;9683;49.028;12.064;2022-07-23T10:21:39;97367.00;;;29.13
19102;BMP280;9683;49.028;12.064;2022-07-23T10:24:16;97365.66;;;29.19
19102;BMP280;9683;49.028;12.064;2022-07-23T10:26:56;97363.50;;;29.25
19102;BMP280;9683;49.028;12.064;2022-07-23T10:29:36;97355.06;;;29.30
19102;BMP280;9683;49.028;12.064;2022-07-23T10:32:17;97362.50;;;29.29
19102;BMP280;9683;49.028;12.064;2022-07-23T10:34:50;97358.28;;;29.32
19102;BMP280;9683;49.028;12.064;2022-07-23T10:37:22;97358.28;;;29.32
19102;BMP280;9683;49.028;12.064;2022-07-23T10:40:08;97354.72;;;29.31
19102;BMP280;9683;49.028;12.064;2022-07-23T10:42:37;97343.41;;;29.33
19102;BMP280;9683;49.028;12.064;2022-07-23T10:45:22;97349.13;;;29.40
19102;BMP280;9683;49.028;12.064;2022-07-23T10:47:49;97334.81;;;29.46
19102;BMP280;9683;49.028;12.064;2022-07-23T10:50:18;97337.09;;;29.56
19102;BMP280;9683;49.028;12.064;2022-07-23T10:53:10;97337.91;;;29.69
19102;BMP280;9683;49.028;12.064;2022-07-23T10:55:41;97333.66;;;29.84
19102;BMP280;9683;49.028;12.064;2022-07-23T10:58:10;97332.06;;;29.95
19102;BMP280;9683;49.028;12.064;2022-07-23T11:00:37;97338.75;;;30.10
19102;BMP280;9683;49.028;12.064;2022-07-23T11:05:47;97330.84;;;30.20
19102;BMP280;9683;49.028;12.064;2022-07-23T11:08:18;97325.25;;;30.17
19102;BMP280;9683;49.028;12.064;2022-07-23T11:10:48;97322.41;;;30.13
19102;BMP280;9683;49.028;12.064;2022-07-23T11:16:24;97335.72;;;29.99
19102;BMP280;9683;49.028;12.064;2022-07-23T11:19:11;97354.59;;;29.88
19102;BMP280;9683;49.028;12.064;2022-07-23T11:21:48;97360.09;;;29.76
19102;BMP280;9683;49.028;12.064;2022-07-23T11:24:20;97394.13;;;29.14
19102;BMP280;9683;49.028;12.064;2022-07-23T11:26:50;97407.56;;;26.64
19102;BMP280;9683;49.028;12.064;2022-07-23T11:32:28;97400.31;;;24.67
19102;BMP280;9683;49.028;12.064;2022-07-23T11:34:56;97400.00;;;24.47
19102;BMP280;9683;49.028;12.064;2022-07-23T11:37:33;97385.34;;;24.34
19102;BMP280;9683;49.028;12.064;2022-07-23T11:40:02;97377.28;;;24.29
19102;BMP280;9683;49.028;12.064;2022-07-23T11:42:30;97385.16;;;24.31
19102;BMP280;9683;49.028;12.064;2022-07-23T11:44:57;97377.47;;;24.33
19102;BMP280;9683;49.028;12.064;2022-07-23T11:47:26;97380.03;;;24.51
19102;BMP280;9683;49.028;12.064;2022-07-23T11:49:54;97379.50;;;24.72
19102;BMP280;9683;49.028;12.064;2022-07-23T11:52:21;97376.13;;;24.88
19102;BMP280;9683;49.028;12.064;2022-07-23T11:54:50;97379.91;;;25.09
19102;BMP280;9683;49.028;12.064;2022-07-23T11:57:18;97372.47;;;25.24
19102;BMP280;9683;49.028;12.064;2022-07-23T11:59:46;97379.56;;;25.33
19102;BMP280;9683;49.028;12.064;2022-07-23T12:02:13;97379.75;;;25.45
19102;BMP280;9683;49.028;12.064;2022-07-23T12:04:43;97373.22;;;25.55
19102;BMP280;9683;49.028;12.064;2022-07-23T12:07:33;97388.47;;;25.56
19102;BMP280;9683;49.028;12.064;2022-07-23T12:10:03;97386.81;;;25.46
19102;BMP280;9683;49.028;12.064;2022-07-23T12:12:35;97378.63;;;25.38
19102;BMP280;9683;49.028;12.064;2022-07-23T12:15:03;97377.66;;;25.42
19102;BMP280;9683;49.028;12.064;2022-07-23T12:17:32;97369.19;;;25.52
19102;BMP280;9683;49.028;12.064;2022-07-23T12:20:02;97371.16;;;25.61
19102;BMP280;9683;49.028;12.064;2022-07-23T12:22:34;97373.09;;;25.60
19102;BMP280;9683;49.028;12.064;2022-07-23T12:25:03;97366.53;;;25.70
19102;BMP280;9683;49.028;12.064;2022-07-23T12:27:31;97362.38;;;25.81
19102;BMP280;9683;49.028;12.064;2022-07-23T12:29:58;97367.84;;;25.89
19102;BMP280;9683;49.028;12.064;2022-07-23T12:32:26;97357.91;;;25.93
19102;BMP280;9683;49.028;12.064;2022-07-23T12:35:04;97347.63;;;25.90
19102;BMP280;9683;49.028;12.064;2022-07-23T12:37:33;97351.81;;;25.96
19102;BMP280;9683;49.028;12.064;2022-07-23T12:40:21;97351.19;;;26.08
19102;BMP280;9683;49.028;12.064;2022-07-23T12:42:50;97352.81;;;26.18
19102;BMP280;9683;49.028;12.064;2022-07-23T12:45:18;97345.56;;;26.13
19102;BMP280;9683;49.028;12.064;2022-07-23T12:47:55;97347.66;;;26.08
19102;BMP280;9683;49.028;12.064;2022-07-23T12:50:39;97342.84;;;26.05
19102;BMP280;9683;49.028;12.064;2022-07-23T12:53:08;97339.31;;;26.04
19102;BMP280;9683;49.028;12.064;2022-07-23T12:55:36;97342.19;;;25.99
19102;BMP280;9683;49.028;12.064;2022-07-23T12:58:08;97348.91;;;25.93
19102;BMP280;9683;49.028;12.064;2022-07-23T13:00:56;97341.06;;;25.83
19102;BMP280;9683;49.028;12.064;2022-07-23T13:03:25;97341.22;;;25.86
19102;BMP280;9683;49.028;12.064;2022-07-23T13:05:53;97342.47;;;25.80
19102;BMP280;9683;49.028;12.064;2022-07-23T13:08:20;97350.16;;;25.61
19102;BMP280;9683;49.028;12.064;2022-07-23T13:10:47;97354.94;;;25.55
19102;BMP280;9683;49.028;12.064;2022-07-23T13:13:16;97356.09;;;25.54
19102;BMP280;9683;49.028;12.064;2022-07-23T13:15:43;97353.38;;;25.63
19102;BMP280;9683;49.028;12.064;2022-07-23T13:18:10;97357.25;;;25.79
19102;BMP280;9683;49.028;12.064;2022-07-23T13:20:37;97355.19;;;25.93
19102;BMP280;9683;49.028;12.064;2022-07-23T13:23:06;97348.44;;;25.99
19102;BMP280;9683;49.028;12.064;2022-07-23T13:25:33;97348.47;;;26.17
19102;BMP280;9683;49.028;12.064;2022-07-23T13:28:00;97354.25;;;26.32
19102;BMP280;9683;49.028;12.064;2022-07-23T13:30:27;97340.25;;;26.60
19102;BMP280;9683;49.028;12.064;2022-07-23T13:32:53;97342.44;;;26.83
19102;BMP280;9683;49.028;12.064;2022-07-23T13:35:20;97335.66;;;26.98
19102;BMP280;9683;49.028;12.064;2022-07-23T13:37:47;97326.94;;;27.13
19102;BMP280;9683;49.028;12.064;2022-07-23T13:40:15;97332.63;;;27.38
19102;BMP280;9683;49.028;12.064;2022-07-23T13:42:42;97328.63;;;27.35
19102;BMP280;9683;49.028;12.064;2022-07-23T13:45:09;97329.69;;;27.51
19102;BMP280;9683;49.028;12.064;2022-07-23T13:47:35;97337.84;;;27.60
19102;BMP280;9683;49.028;12.064;2022-07-23T13:50:03;97338.88;;;27.76
19102;BMP280;9683;49.028;12.064;2022-07-23T13:52:30;97347.78;;;27.94
19102;BMP280;9683;49.028;12.064;2022-07-23T13:54:58;97337.97;;;28.13
19102;BMP280;9683;49.028;12.064;2022-07-23T13:57:26;97341.06;;;28.03
19102;BMP280;9683;49.028;12.064;2022-07-23T13:59:53;97334.03;;;27.52
19102;BMP280;9683;49.028;12.064;2022-07-23T14:02:19;97340.63;;;27.51
19102;BMP280;9683;49.028;12.064;2022-07-23T14:04:46;97347.06;;;27.47
19102;BMP280;9683;49.028;12.064;2022-07-23T14:07:12;97341.75;;;27.42
19102;BMP280;9683;49.028;12.064;2022-07-23T14:09:39;97342.88;;;27.41
19102;BMP280;9683;49.028;12.064;2022-07-23T14:12:07;97341.44;;;27.52
19102;BMP280;9683;49.028;12.064;2022-07-23T14:14:35;97337.97;;;27.63
19102;BMP280;9683;49.028;12.064;2022-07-23T14:17:02;97343.22;;;27.77
19102;BMP280;9683;49.028;12.064;2022-07-23T14:19:29;97341.94;;;27.95
19102;BMP280;9683;49.028;12.064;2022-07-23T14:21:55;97338.69;;;27.81
19102;BMP280;9683;49.028;12.064;2022-07-23T14:24:22;97331.97;;;27.70